sensor_id;sensor_type;location;lat;lon;timestamp;P1;durP1;ratioP1;P2;durP2;ratioP2
46080;SDS011;31821;51.880;-0.518;2022-11-15T00:01:32;8.73;;;1.38;;
46080;SDS011;31821;51.880;-0.518;2022-11-15T00:03:57;6.70;;;1.83;;
46080;SDS011;31821;51.880;-0.518;2022-11-15T00:06:22;9.23;;;1.90;;
46080;SDS011;31821;51.880;-0.518;2022-11-15T00:08:48;7.20;;;1.30;;
46080;SDS011;31821;51.880;-0.518;2022-11-15T00:11:13;8.25;;;1.33;;
46080;SDS011;31821;51.880;-0.518;2022-11-15T00:13:39;6.38;;;1.55;;
46080;SDS011;31821;51.880;-0.518;2022-11-15T00:16:05;5.25;;;1.40;;
46080;SDS011;31821;51.880;-0.518;2022-11-15T00:18:31;5.95;;;1.20;;
46080;SDS011;31821;51.880;-0.518;2022-11-15T00:21:02;4.47;;;1.25;;
46080;SDS011;31821;51.880;-0.518;2022-11-15T00:25:55;8.13;;;1.63;;
46080;SDS011;31821;51.880;-0.518;2022-11-15T00:28:22;5.38;;;1.38;;
46080;SDS011;31821;51.880;-0.518;2022-11-15T00:30:47;7.80;;;1.55;;
46080;SDS011;31821;51.880;-0.518;2022-11-15T00:33:13;9.82;;;1.67;;
46080;SDS011;31821;51.880;-0.518;2022-11-15T00:35:38;5.80;;;1.40;;
46080;SDS011;31821;51.880;-0.518;2022-11-15T00:38:04;6.60;;;1.30;;
46080;SDS011;31821;51.880;-0.518;2022-11-15T00:40:30;8.68;;;2.08;;
46080;SDS011;31821;51.880;-0.518;2022-11-15T00:42:56;8.32;;;1.85;;
46080;SDS011;31821;51.880;-0.518;2022-11-15T00:45:22;9.00;;;1.90;;
46080;SDS011;31821;51.880;-0.518;2022-11-15T00:47:48;8.05;;;1.90;;
46080;SDS011;31821;51.880;-0.518;2022-11-15T00:50:13;8.10;;;1.50;;
46080;SDS011;31821;51.880;-0.518;2022-11-15T00:52:39;9.95;;;1.60;;
46080;SDS011;31821;51.880;-0.518;2022-11-15T00:55:04;5.63;;;1.48;;
46080;SDS011;31821;51.880;-0.518;2022-11-15T00:57:30;6.65;;;1.60;;
46080;SDS011;31821;51.880;-0.518;2022-11-15T00:59:56;5.40;;;1.23;;
46080;SDS011;31821;51.880;-0.518;2022-11-15T01:02:21;3.75;;;1.25;;
46080;SDS011;31821;51.880;-0.518;2022-11-15T01:04:47;5.80;;;1.42;;
46080;SDS011;31821;51.880;-0.518;2022-11-15T01:07:12;7.55;;;1.40;;
46080;SDS011;31821;51.880;-0.518;2022-11-15T01:09:38;8.98;;;1.60;;
46080;SDS011;31821;51.880;-0.518;2022-11-15T01:12:03;5.15;;;1.20;;
46080;SDS011;31821;51.880;-0.518;2022-11-15T01:14:30;6.53;;;1.50;;
46080;SDS011;31821;51.880;-0.518;2022-11-15T01:16:56;8.02;;;1.45;;
46080;SDS011;31821;51.880;-0.518;2022-11-15T01:19:21;5.53;;;1.27;;
46080;SDS011;31821;51.880;-0.518;2022-11-15T01:21:49;9.90;;;1.52;;
46080;SDS011;31821;51.880;-0.518;2022-11-15T01:24:15;6.93;;;1.50;;
46080;SDS011;31821;51.880;-0.518;2022-11-15T01:26:41;13.02;;;1.73;;
46080;SDS011;31821;51.880;-0.518;2022-11-15T01:29:06;7.88;;;1.48;;
46080;SDS011;31821;51.880;-0.518;2022-11-15T01:31:32;9.43;;;1.80;;
46080;SDS011;31821;51.880;-0.518;2022-11-15T01:33:57;8.88;;;2.22;;
46080;SDS011;31821;51.880;-0.518;2022-11-15T01:36:23;10.57;;;1.98;;
46080;SDS011;31821;51.880;-0.518;2022-11-15T01:38:55;6.28;;;1.55;;
46080;SDS011;31821;51.880;-0.518;2022-11-15T01:41:23;7.38;;;1.70;;
46080;SDS011;31821;51.880;-0.518;2022-11-15T01:43:53;7.78;;;1.70;;
46080;SDS011;31821;51.880;-0.518;2022-11-15T01:48:46;8.13;;;2.25;;
46080;SDS011;31821;51.880;-0.518;2022-11-15T01:51:15;7.63;;;1.70;;
46080;SDS011;31821;51.880;-0.518;2022-11-15T01:53:43;4.97;;;1.45;;
46080;SDS011;31821;51.880;-0.518;2022-11-15T01:56:13;11.23;;;1.70;;
46080;SDS011;31821;51.880;-0.518;2022-11-15T01:58:48;9.35;;;1.67;;
46080;SDS011;31821;51.880;-0.518;2022-11-15T02:01:16;7.35;;;1.77;;
46080;SDS011;31821;51.880;-0.518;2022-11-15T02:03:56;8.75;;;1.98;;
46080;SDS011;31821;51.880;-0.518;2022-11-15T02:08:50;9.88;;;1.70;;
46080;SDS011;31821;51.880;-0.518;2022-11-15T02:11:16;12.40;;;1.90;;
46080;SDS011;31821;51.880;-0.518;2022-11-15T02:13:42;9.55;;;2.10;;
46080;SDS011;31821;51.880;-0.518;2022-11-15T02:16:10;9.30;;;1.65;;
46080;SDS011;31821;51.880;-0.518;2022-11-15T02:18:57;9.48;;;1.75;;
46080;SDS011;31821;51.880;-0.518;2022-11-15T02:29:42;11.98;;;1.70;;
46080;SDS011;31821;51.880;-0.518;2022-11-15T02:37:57;7.90;;;1.30;;
46080;SDS011;31821;51.880;-0.518;2022-11-15T02:40:37;7.90;;;1.45;;
46080;SDS011;31821;51.880;-0.518;2022-11-15T02:43:10;10.27;;;1.50;;
46080;SDS011;31821;51.880;-0.518;2022-11-15T02:46:04;5.85;;;1.23;;
46080;SDS011;31821;51.880;-0.518;2022-11-15T02:48:48;10.38;;;1.50;;
46080;SDS011;31821;51.880;-0.518;2022-11-15T02:51:15;8.48;;;1.45;;
46080;SDS011;31821;51.880;-0.518;2022-11-15T02:53:42;11.25;;;1.25;;
46080;SDS011;31821;51.880;-0.518;2022-11-15T02:56:07;10.80;;;1.30;;
46080;SDS011;31821;51.880;-0.518;2022-11-15T02:58:42;13.00;;;2.00;;
46080;SDS011;31821;51.880;-0.518;2022-11-15T03:03:59;5.75;;;1.35;;
46080;SDS011;31821;51.880;-0.518;2022-11-15T03:06:41;6.80;;;1.50;;
46080;SDS011;31821;51.880;-0.518;2022-11-15T03:09:56;9.27;;;1.73;;
46080;SDS011;31821;51.880;-0.518;2022-11-15T03:12:11;7.05;;;1.38;;
46080;SDS011;31821;51.880;-0.518;2022-11-15T03:14:49;7.63;;;1.63;;
46080;SDS011;31821;51.880;-0.518;2022-11-15T03:17:28;8.77;;;1.75;;
46080;SDS011;31821;51.880;-0.518;2022-11-15T03:19:58;9.20;;;1.60;;
46080;SDS011;31821;51.880;-0.518;2022-11-15T03:22:26;9.95;;;1.45;;
46080;SDS011;31821;51.880;-0.518;2022-11-15T03:24:56;11.02;;;1.67;;
46080;SDS011;31821;51.880;-0.518;2022-11-15T03:27:27;6.78;;;1.33;;
46080;SDS011;31821;51.880;-0.518;2022-11-15T03:30:00;8.95;;;1.50;;
46080;SDS011;31821;51.880;-0.518;2022-11-15T03:32:30;9.18;;;1.70;;
46080;SDS011;31821;51.880;-0.518;2022-11-15T03:35:05;10.77;;;1.50;;
46080;SDS011;31821;51.880;-0.518;2022-11-15T03:40:47;13.63;;;1.52;;
46080;SDS011;31821;51.880;-0.518;2022-11-15T03:46:16;8.82;;;1.52;;
46080;SDS011;31821;51.880;-0.518;2022-11-15T03:48:49;8.43;;;1.58;;
46080;SDS011;31821;51.880;-0.518;2022-11-15T03:51:18;9.10;;;1.60;;
46080;SDS011;31821;51.880;-0.518;2022-11-15T03:53:45;9.70;;;1.98;;
46080;SDS011;31821;51.880;-0.518;2022-11-15T03:56:10;15.23;;;2.10;;
46080;SDS011;31821;51.880;-0.518;2022-11-15T03:58:36;9.43;;;1.90;;
46080;SDS011;31821;51.880;-0.518;2022-11-15T04:01:01;11.35;;;1.38;;
46080;SDS011;31821;51.880;-0.518;2022-11-15T04:03:27;13.90;;;1.95;;
46080;SDS011;31821;51.880;-0.518;2022-11-15T04:05:53;10.10;;;1.50;;
46080;SDS011;31821;51.880;-0.518;2022-11-15T04:08:18;19.95;;;2.67;;
46080;SDS011;31821;51.880;-0.518;2022-11-15T04:10:43;11.88;;;1.92;;
46080;SDS011;31821;51.880;-0.518;2022-11-15T04:13:09;14.70;;;2.00;;
46080;SDS011;31821;51.880;-0.518;2022-11-15T04:15:34;11.35;;;2.10;;
46080;SDS011;31821;51.880;-0.518;2022-11-15T04:18:00;13.82;;;1.92;;
46080;SDS011;31821;51.880;-0.518;2022-11-15T04:20:30;13.05;;;1.92;;
46080;SDS011;31821;51.880;-0.518;2022-11-15T04:26:24;10.25;;;1.58;;
46080;SDS011;31821;51.880;-0.518;2022-11-15T04:28:49;15.85;;;2.10;;
46080;SDS011;31821;51.880;-0.518;2022-11-15T04:31:33;11.82;;;1.90;;
46080;SDS011;31821;51.880;-0.518;2022-11-15T04:33:59;14.30;;;1.90;;
46080;SDS011;31821;51.880;-0.518;2022-11-15T04:36:25;13.93;;;1.85;;
46080;SDS011;31821;51.880;-0.518;2022-11-15T04:39:11;13.13;;;2.28;;
46080;SDS011;31821;51.880;-0.518;2022-11-15T04:41:36;9.55;;;1.75;;
46080;SDS011;31821;51.880;-0.518;2022-11-15T04:44:02;13.50;;;2.25;;
46080;SDS011;31821;51.880;-0.518;2022-11-15T04:46:28;14.38;;;2.00;;
46080;SDS011;31821;51.880;-0.518;2022-11-15T04:48:53;9.07;;;1.60;;
46080;SDS011;31821;51.880;-0.518;2022-11-15T04:51:19;9.02;;;2.00;;
46080;SDS011;31821;51.880;-0.518;2022-11-15T04:53:45;10.98;;;1.70;;
46080;SDS011;31821;51.880;-0.518;2022-11-15T04:56:11;10.60;;;1.77;;
46080;SDS011;31821;51.880;-0.518;2022-11-15T04:58:36;12.27;;;1.95;;
46080;SDS011;31821;51.880;-0.518;2022-11-15T05:01:09;9.82;;;1.60;;
46080;SDS011;31821;51.880;-0.518;2022-11-15T05:03:36;11.68;;;1.90;;
46080;SDS011;31821;51.880;-0.518;2022-11-15T05:06:19;15.60;;;2.22;;
46080;SDS011;31821;51.880;-0.518;2022-11-15T05:08:46;6.47;;;1.55;;
46080;SDS011;31821;51.880;-0.518;2022-11-15T05:11:12;9.50;;;1.67;;
46080;SDS011;31821;51.880;-0.518;2022-11-15T05:13:37;13.02;;;2.10;;
46080;SDS011;31821;51.880;-0.518;2022-11-15T05:16:03;11.38;;;2.17;;
46080;SDS011;31821;51.880;-0.518;2022-11-15T05:18:29;10.48;;;2.28;;
46080;SDS011;31821;51.880;-0.518;2022-11-15T05:20:54;7.32;;;1.60;;
46080;SDS011;31821;51.880;-0.518;2022-11-15T05:23:20;13.85;;;2.63;;
46080;SDS011;31821;51.880;-0.518;2022-11-15T05:25:45;14.88;;;1.92;;
46080;SDS011;31821;51.880;-0.518;2022-11-15T05:28:11;12.93;;;2.58;;
46080;SDS011;31821;51.880;-0.518;2022-11-15T05:30:36;11.05;;;2.13;;
46080;SDS011;31821;51.880;-0.518;2022-11-15T05:33:02;11.88;;;2.33;;
46080;SDS011;31821;51.880;-0.518;2022-11-15T05:35:33;11.25;;;2.10;;
46080;SDS011;31821;51.880;-0.518;2022-11-15T05:38:02;10.98;;;1.95;;
46080;SDS011;31821;51.880;-0.518;2022-11-15T05:40:28;9.43;;;2.10;;
46080;SDS011;31821;51.880;-0.518;2022-11-15T05:42:55;13.10;;;1.90;;
46080;SDS011;31821;51.880;-0.518;2022-11-15T05:45:22;14.05;;;2.17;;
46080;SDS011;31821;51.880;-0.518;2022-11-15T05:47:47;13.27;;;2.25;;
46080;SDS011;31821;51.880;-0.518;2022-11-15T05:50:14;10.82;;;2.25;;
46080;SDS011;31821;51.880;-0.518;2022-11-15T05:52:42;8.93;;;1.80;;
46080;SDS011;31821;51.880;-0.518;2022-11-15T05:55:09;12.43;;;1.92;;
46080;SDS011;31821;51.880;-0.518;2022-11-15T05:57:35;9.40;;;1.83;;
46080;SDS011;31821;51.880;-0.518;2022-11-15T06:00:03;8.90;;;1.50;;
46080;SDS011;31821;51.880;-0.518;2022-11-15T06:02:29;12.77;;;1.80;;
46080;SDS011;31821;51.880;-0.518;2022-11-15T06:04:55;12.07;;;1.70;;
46080;SDS011;31821;51.880;-0.518;2022-11-15T06:07:20;9.10;;;2.08;;
46080;SDS011;31821;51.880;-0.518;2022-11-15T06:09:46;9.00;;;1.73;;
46080;SDS011;31821;51.880;-0.518;2022-11-15T06:12:11;10.30;;;1.77;;
46080;SDS011;31821;51.880;-0.518;2022-11-15T06:14:37;11.32;;;1.95;;
46080;SDS011;31821;51.880;-0.518;2022-11-15T06:17:02;11.68;;;2.22;;
46080;SDS011;31821;51.880;-0.518;2022-11-15T06:19:28;17.42;;;2.85;;
46080;SDS011;31821;51.880;-0.518;2022-11-15T06:21:58;12.13;;;2.35;;
46080;SDS011;31821;51.880;-0.518;2022-11-15T06:24:24;11.38;;;1.83;;
46080;SDS011;31821;51.880;-0.518;2022-11-15T06:26:49;9.32;;;2.00;;
46080;SDS011;31821;51.880;-0.518;2022-11-15T06:29:15;14.68;;;2.25;;
46080;SDS011;31821;51.880;-0.518;2022-11-15T06:31:41;12.23;;;2.45;;
46080;SDS011;31821;51.880;-0.518;2022-11-15T06:34:07;12.27;;;2.45;;
46080;SDS011;31821;51.880;-0.518;2022-11-15T06:36:34;10.43;;;2.55;;
46080;SDS011;31821;51.880;-0.518;2022-11-15T06:39:01;12.30;;;2.10;;
46080;SDS011;31821;51.880;-0.518;2022-11-15T06:41:27;11.52;;;1.85;;
46080;SDS011;31821;51.880;-0.518;2022-11-15T06:43:52;10.55;;;2.10;;
46080;SDS011;31821;51.880;-0.518;2022-11-15T06:46:18;11.57;;;2.30;;
46080;SDS011;31821;51.880;-0.518;2022-11-15T06:48:43;11.38;;;2.05;;
46080;SDS011;31821;51.880;-0.518;2022-11-15T06:51:09;12.23;;;1.92;;
46080;SDS011;31821;51.880;-0.518;2022-11-15T06:53:35;11.57;;;2.25;;
46080;SDS011;31821;51.880;-0.518;2022-11-15T06:56:01;11.98;;;2.20;;
46080;SDS011;31821;51.880;-0.518;2022-11-15T06:58:31;15.43;;;2.10;;
46080;SDS011;31821;51.880;-0.518;2022-11-15T07:01:00;14.63;;;3.15;;
46080;SDS011;31821;51.880;-0.518;2022-11-15T07:03:28;7.07;;;1.63;;
46080;SDS011;31821;51.880;-0.518;2022-11-15T07:05:54;11.77;;;2.30;;
46080;SDS011;31821;51.880;-0.518;2022-11-15T07:08:21;9.30;;;1.60;;
46080;SDS011;31821;51.880;-0.518;2022-11-15T07:10:48;12.88;;;2.80;;
46080;SDS011;31821;51.880;-0.518;2022-11-15T07:13:14;5.07;;;1.58;;
46080;SDS011;31821;51.880;-0.518;2022-11-15T07:15:40;10.20;;;2.55;;
46080;SDS011;31821;51.880;-0.518;2022-11-15T07:18:06;11.40;;;2.55;;
46080;SDS011;31821;51.880;-0.518;2022-11-15T07:20:31;8.05;;;2.42;;
46080;SDS011;31821;51.880;-0.518;2022-11-15T07:23:00;7.78;;;1.77;;
46080;SDS011;31821;51.880;-0.518;2022-11-15T07:25:27;5.95;;;2.10;;
46080;SDS011;31821;51.880;-0.518;2022-11-15T07:27:56;6.40;;;1.88;;
46080;SDS011;31821;51.880;-0.518;2022-11-15T07:30:22;7.90;;;1.85;;
46080;SDS011;31821;51.880;-0.518;2022-11-15T07:32:58;9.75;;;2.10;;
46080;SDS011;31821;51.880;-0.518;2022-11-15T07:35:25;6.50;;;1.90;;
46080;SDS011;31821;51.880;-0.518;2022-11-15T07:38:01;8.20;;;1.52;;
46080;SDS011;31821;51.880;-0.518;2022-11-15T07:40:28;6.85;;;1.83;;
46080;SDS011;31821;51.880;-0.518;2022-11-15T07:43:00;7.25;;;1.75;;
46080;SDS011;31821;51.880;-0.518;2022-11-15T07:45:26;5.25;;;1.33;;
46080;SDS011;31821;51.880;-0.518;2022-11-15T07:47:51;5.38;;;1.20;;
46080;SDS011;31821;51.880;-0.518;2022-11-15T07:50:18;2.90;;;1.25;;
46080;SDS011;31821;51.880;-0.518;2022-11-15T07:52:43;3.10;;;1.17;;
46080;SDS011;31821;51.880;-0.518;2022-11-15T07:55:11;4.03;;;1.38;;
46080;SDS011;31821;51.880;-0.518;2022-11-15T07:57:37;4.05;;;1.40;;
46080;SDS011;31821;51.880;-0.518;2022-11-15T08:00:03;4.03;;;1.00;;
46080;SDS011;31821;51.880;-0.518;2022-11-15T08:02:30;4.68;;;1.10;;
46080;SDS011;31821;51.880;-0.518;2022-11-15T08:04:56;3.83;;;1.25;;
46080;SDS011;31821;51.880;-0.518;2022-11-15T08:07:21;5.57;;;1.40;;
46080;SDS011;31821;51.880;-0.518;2022-11-15T08:09:47;4.35;;;1.23;;
46080;SDS011;31821;51.880;-0.518;2022-11-15T08:12:14;3.03;;;0.90;;
46080;SDS011;31821;51.880;-0.518;2022-11-15T08:14:39;4.00;;;0.95;;
46080;SDS011;31821;51.880;-0.518;2022-11-15T08:17:06;3.35;;;1.00;;
46080;SDS011;31821;51.880;-0.518;2022-11-15T08:19:35;3.40;;;1.30;;
46080;SDS011;31821;51.880;-0.518;2022-11-15T08:22:00;3.17;;;1.00;;
46080;SDS011;31821;51.880;-0.518;2022-11-15T08:24:27;5.35;;;1.00;;
46080;SDS011;31821;51.880;-0.518;2022-11-15T08:26:52;4.70;;;1.23;;
46080;SDS011;31821;51.880;-0.518;2022-11-15T08:29:18;3.45;;;1.02;;
46080;SDS011;31821;51.880;-0.518;2022-11-15T08:31:44;2.38;;;1.00;;
46080;SDS011;31821;51.880;-0.518;2022-11-15T08:34:10;2.90;;;1.00;;
46080;SDS011;31821;51.880;-0.518;2022-11-15T08:36:37;3.25;;;1.00;;
46080;SDS011;31821;51.880;-0.518;2022-11-15T08:39:03;2.47;;;0.90;;
46080;SDS011;31821;51.880;-0.518;2022-11-15T08:41:32;4.25;;;1.13;;
46080;SDS011;31821;51.880;-0.518;2022-11-15T08:44:00;1.15;;;0.75;;
46080;SDS011;31821;51.880;-0.518;2022-11-15T08:46:26;6.35;;;1.35;;
46080;SDS011;31821;51.880;-0.518;2022-11-15T08:48:52;2.55;;;0.70;;
46080;SDS011;31821;51.880;-0.518;2022-11-15T08:51:17;2.45;;;0.80;;
46080;SDS011;31821;51.880;-0.518;2022-11-15T08:53:43;2.75;;;0.90;;
46080;SDS011;31821;51.880;-0.518;2022-11-15T08:56:12;4.05;;;0.95;;
46080;SDS011;31821;51.880;-0.518;2022-11-15T08:58:39;0.98;;;0.50;;
46080;SDS011;31821;51.880;-0.518;2022-11-15T09:01:05;2.38;;;0.82;;
46080;SDS011;31821;51.880;-0.518;2022-11-15T09:03:31;1.50;;;0.60;;
46080;SDS011;31821;51.880;-0.518;2022-11-15T09:05:57;1.50;;;0.73;;
46080;SDS011;31821;51.880;-0.518;2022-11-15T09:08:25;1.63;;;0.60;;
46080;SDS011;31821;51.880;-0.518;2022-11-15T09:10:54;2.92;;;0.70;;
46080;SDS011;31821;51.880;-0.518;2022-11-15T09:13:20;10.18;;;0.90;;
46080;SDS011;31821;51.880;-0.518;2022-11-15T09:15:45;2.75;;;0.73;;
46080;SDS011;31821;51.880;-0.518;2022-11-15T09:18:11;3.08;;;0.70;;
46080;SDS011;31821;51.880;-0.518;2022-11-15T09:20:36;1.23;;;0.52;;
46080;SDS011;31821;51.880;-0.518;2022-11-15T09:23:02;1.50;;;0.50;;
46080;SDS011;31821;51.880;-0.518;2022-11-15T09:25:29;1.05;;;0.60;;
46080;SDS011;31821;51.880;-0.518;2022-11-15T09:27:55;1.85;;;0.80;;
46080;SDS011;31821;51.880;-0.518;2022-11-15T09:30:21;1.65;;;0.60;;
46080;SDS011;31821;51.880;-0.518;2022-11-15T09:32:47;0.85;;;0.50;;
46080;SDS011;31821;51.880;-0.518;2022-11-15T09:35:12;0.93;;;0.50;;
46080;SDS011;31821;51.880;-0.518;2022-11-15T09:37:38;1.25;;;0.60;;
46080;SDS011;31821;51.880;-0.518;2022-11-15T09:40:03;0.98;;;0.50;;
46080;SDS011;31821;51.880;-0.518;2022-11-15T09:50:48;1.33;;;0.50;;
46080;SDS011;31821;51.880;-0.518;2022-11-15T09:56:22;1.15;;;0.45;;
46080;SDS011;31821;51.880;-0.518;2022-11-15T09:58:59;2.22;;;0.70;;
46080;SDS011;31821;51.880;-0.518;2022-11-15T10:01:43;0.80;;;0.50;;
46080;SDS011;31821;51.880;-0.518;2022-11-15T10:04:14;1.63;;;0.50;;
46080;SDS011;31821;51.880;-0.518;2022-11-15T10:06:43;0.95;;;0.50;;
46080;SDS011;31821;51.880;-0.518;2022-11-15T10:09:20;1.30;;;0.60;;
46080;SDS011;31821;51.880;-0.518;2022-11-15T10:12:10;1.67;;;0.60;;
46080;SDS011;31821;51.880;-0.518;2022-11-15T10:14:38;1.65;;;0.77;;
46080;SDS011;31821;51.880;-0.518;2022-11-15T10:17:08;1.10;;;0.70;;
46080;SDS011;31821;51.880;-0.518;2022-11-15T10:22:28;2.92;;;1.00;;
46080;SDS011;31821;51.880;-0.518;2022-11-15T10:25:03;2.63;;;0.50;;
46080;SDS011;31821;51.880;-0.518;2022-11-15T10:27:39;1.30;;;0.50;;
46080;SDS011;31821;51.880;-0.518;2022-11-15T10:30:16;1.58;;;0.50;;
46080;SDS011;31821;51.880;-0.518;2022-11-15T10:32:43;0.90;;;0.40;;
46080;SDS011;31821;51.880;-0.518;2022-11-15T10:38:06;3.00;;;0.70;;
46080;SDS011;31821;51.880;-0.518;2022-11-15T10:40:33;1.80;;;0.75;;
46080;SDS011;31821;51.880;-0.518;2022-11-15T10:45:35;2.40;;;0.70;;
46080;SDS011;31821;51.880;-0.518;2022-11-15T10:48:22;3.72;;;0.60;;
46080;SDS011;31821;51.880;-0.518;2022-11-15T10:50:48;1.15;;;0.60;;
46080;SDS011;31821;51.880;-0.518;2022-11-15T10:55:47;2.30;;;0.60;;
46080;SDS011;31821;51.880;-0.518;2022-11-15T11:01:11;3.20;;;0.60;;
46080;SDS011;31821;51.880;-0.518;2022-11-15T11:03:43;2.50;;;1.00;;
46080;SDS011;31821;51.880;-0.518;2022-11-15T11:06:14;2.50;;;0.90;;
46080;SDS011;31821;51.880;-0.518;2022-11-15T11:09:03;1.58;;;0.70;;
46080;SDS011;31821;51.880;-0.518;2022-11-15T11:11:48;1.65;;;0.80;;
46080;SDS011;31821;51.880;-0.518;2022-11-15T11:14:20;1.30;;;0.63;;
46080;SDS011;31821;51.880;-0.518;2022-11-15T11:16:52;3.15;;;0.77;;
46080;SDS011;31821;51.880;-0.518;2022-11-15T11:21:59;1.83;;;0.68;;
46080;SDS011;31821;51.880;-0.518;2022-11-15T11:24:42;2.88;;;0.85;;
46080;SDS011;31821;51.880;-0.518;2022-11-15T11:32:50;3.15;;;0.80;;
46080;SDS011;31821;51.880;-0.518;2022-11-15T11:40:40;1.40;;;0.60;;
46080;SDS011;31821;51.880;-0.518;2022-11-15T11:48:14;2.75;;;0.90;;
46080;SDS011;31821;51.880;-0.518;2022-11-15T11:55:44;4.57;;;0.88;;
46080;SDS011;31821;51.880;-0.518;2022-11-15T11:58:17;3.45;;;0.70;;
46080;SDS011;31821;51.880;-0.518;2022-11-15T12:17:09;3.03;;;0.80;;
46080;SDS011;31821;51.880;-0.518;2022-11-15T12:19:39;2.03;;;0.70;;
46080;SDS011;31821;51.880;-0.518;2022-11-15T12:27:37;1.50;;;0.68;;
46080;SDS011;31821;51.880;-0.518;2022-11-15T12:30:10;3.35;;;0.88;;
46080;SDS011;31821;51.880;-0.518;2022-11-15T12:32:39;3.00;;;0.70;;
46080;SDS011;31821;51.880;-0.518;2022-11-15T12:35:23;2.58;;;0.70;;
46080;SDS011;31821;51.880;-0.518;2022-11-15T12:37:52;4.13;;;0.70;;
46080;SDS011;31821;51.880;-0.518;2022-11-15T12:45:28;2.58;;;0.80;;
46080;SDS011;31821;51.880;-0.518;2022-11-15T12:58:49;2.38;;;0.80;;
46080;SDS011;31821;51.880;-0.518;2022-11-15T13:04:09;1.83;;;0.63;;
46080;SDS011;31821;51.880;-0.518;2022-11-15T13:14:54;1.42;;;0.57;;
46080;SDS011;31821;51.880;-0.518;2022-11-15T13:17:23;2.05;;;0.70;;
46080;SDS011;31821;51.880;-0.518;2022-11-15T13:22:51;3.25;;;0.98;;
46080;SDS011;31821;51.880;-0.518;2022-11-15T13:25:39;1.65;;;0.57;;
46080;SDS011;31821;51.880;-0.518;2022-11-15T13:31:27;2.08;;;0.60;;
46080;SDS011;31821;51.880;-0.518;2022-11-15T13:34:26;2.83;;;0.80;;
46080;SDS011;31821;51.880;-0.518;2022-11-15T13:36:55;1.98;;;0.90;;
46080;SDS011;31821;51.880;-0.518;2022-11-15T13:39:30;2.45;;;0.70;;
46080;SDS011;31821;51.880;-0.518;2022-11-15T13:41:58;3.63;;;0.77;;
46080;SDS011;31821;51.880;-0.518;2022-11-15T13:44:25;1.98;;;0.70;;
46080;SDS011;31821;51.880;-0.518;2022-11-15T13:49:44;2.13;;;0.70;;
46080;SDS011;31821;51.880;-0.518;2022-11-15T13:52:14;4.43;;;0.93;;
46080;SDS011;31821;51.880;-0.518;2022-11-15T13:57:18;3.47;;;0.70;;
46080;SDS011;31821;51.880;-0.518;2022-11-15T13:59:52;5.20;;;1.00;;
46080;SDS011;31821;51.880;-0.518;2022-11-15T14:05:02;5.72;;;0.80;;
46080;SDS011;31821;51.880;-0.518;2022-11-15T14:07:39;3.58;;;1.00;;
46080;SDS011;31821;51.880;-0.518;2022-11-15T14:13:00;2.78;;;0.80;;
46080;SDS011;31821;51.880;-0.518;2022-11-15T14:15:30;5.57;;;0.90;;
46080;SDS011;31821;51.880;-0.518;2022-11-15T14:17:57;2.13;;;0.93;;
46080;SDS011;31821;51.880;-0.518;2022-11-15T14:22:52;2.40;;;0.47;;
46080;SDS011;31821;51.880;-0.518;2022-11-15T14:25:20;1.33;;;0.30;;
46080;SDS011;31821;51.880;-0.518;2022-11-15T14:30:33;1.55;;;0.40;;
46080;SDS011;31821;51.880;-0.518;2022-11-15T14:32:59;3.13;;;0.40;;
46080;SDS011;31821;51.880;-0.518;2022-11-15T14:35:25;0.65;;;0.30;;
46080;SDS011;31821;51.880;-0.518;2022-11-15T14:37:50;0.63;;;0.40;;
46080;SDS011;31821;51.880;-0.518;2022-11-15T14:40:26;1.10;;;0.30;;
46080;SDS011;31821;51.880;-0.518;2022-11-15T14:42:52;1.98;;;0.50;;
46080;SDS011;31821;51.880;-0.518;2022-11-15T14:45:20;0.60;;;0.40;;
46080;SDS011;31821;51.880;-0.518;2022-11-15T14:47:50;0.63;;;0.32;;
46080;SDS011;31821;51.880;-0.518;2022-11-15T14:50:38;1.45;;;0.40;;
46080;SDS011;31821;51.880;-0.518;2022-11-15T14:53:15;1.50;;;0.30;;
46080;SDS011;31821;51.880;-0.518;2022-11-15T14:55:55;3.60;;;0.68;;
46080;SDS011;31821;51.880;-0.518;2022-11-15T14:58:41;1.83;;;0.60;;
46080;SDS011;31821;51.880;-0.518;2022-11-15T15:04:48;1.23;;;0.47;;
46080;SDS011;31821;51.880;-0.518;2022-11-15T15:07:57;1.60;;;0.50;;
46080;SDS011;31821;51.880;-0.518;2022-11-15T15:14:12;1.02;;;0.50;;
46080;SDS011;31821;51.880;-0.518;2022-11-15T15:16:52;2.65;;;0.60;;
46080;SDS011;31821;51.880;-0.518;2022-11-15T15:20:10;2.00;;;0.60;;
46080;SDS011;31821;51.880;-0.518;2022-11-15T15:22:48;2.35;;;0.60;;
46080;SDS011;31821;51.880;-0.518;2022-11-15T15:28:35;3.13;;;1.35;;
46080;SDS011;31821;51.880;-0.518;2022-11-15T15:31:18;4.18;;;0.90;;
46080;SDS011;31821;51.880;-0.518;2022-11-15T15:34:28;4.57;;;0.80;;
46080;SDS011;31821;51.880;-0.518;2022-11-15T15:40:24;1.73;;;0.57;;
46080;SDS011;31821;51.880;-0.518;2022-11-15T15:43:19;1.45;;;0.77;;
46080;SDS011;31821;51.880;-0.518;2022-11-15T15:45:47;2.08;;;0.68;;
46080;SDS011;31821;51.880;-0.518;2022-11-15T15:48:29;2.63;;;0.70;;
46080;SDS011;31821;51.880;-0.518;2022-11-15T15:51:21;2.13;;;0.70;;
46080;SDS011;31821;51.880;-0.518;2022-11-15T15:54:06;3.65;;;0.60;;
46080;SDS011;31821;51.880;-0.518;2022-11-15T15:56:44;3.78;;;0.95;;
46080;SDS011;31821;51.880;-0.518;2022-11-15T15:59:25;2.35;;;0.90;;
46080;SDS011;31821;51.880;-0.518;2022-11-15T16:01:54;3.40;;;0.65;;
46080;SDS011;31821;51.880;-0.518;2022-11-15T16:04:34;3.05;;;0.60;;
46080;SDS011;31821;51.880;-0.518;2022-11-15T16:07:17;3.40;;;0.68;;
46080;SDS011;31821;51.880;-0.518;2022-11-15T16:10:02;3.70;;;0.60;;
46080;SDS011;31821;51.880;-0.518;2022-11-15T16:12:50;3.07;;;0.87;;
46080;SDS011;31821;51.880;-0.518;2022-11-15T16:15:35;3.33;;;0.90;;
46080;SDS011;31821;51.880;-0.518;2022-11-15T16:18:08;3.75;;;1.00;;
46080;SDS011;31821;51.880;-0.518;2022-11-15T16:21:00;3.50;;;0.90;;
46080;SDS011;31821;51.880;-0.518;2022-11-15T16:27:14;3.75;;;1.35;;
46080;SDS011;31821;51.880;-0.518;2022-11-15T16:29:42;3.40;;;0.88;;
46080;SDS011;31821;51.880;-0.518;2022-11-15T16:32:25;4.13;;;0.80;;
46080;SDS011;31821;51.880;-0.518;2022-11-15T16:35:12;2.28;;;0.73;;
46080;SDS011;31821;51.880;-0.518;2022-11-15T16:40:54;2.05;;;0.77;;
46080;SDS011;31821;51.880;-0.518;2022-11-15T16:43:37;2.97;;;0.82;;
46080;SDS011;31821;51.880;-0.518;2022-11-15T16:46:19;3.55;;;1.17;;
46080;SDS011;31821;51.880;-0.518;2022-11-15T16:49:01;4.80;;;1.20;;
46080;SDS011;31821;51.880;-0.518;2022-11-15T16:51:37;2.58;;;0.80;;
46080;SDS011;31821;51.880;-0.518;2022-11-15T16:54:16;3.63;;;0.80;;
46080;SDS011;31821;51.880;-0.518;2022-11-15T17:00:33;3.38;;;1.15;;
46080;SDS011;31821;51.880;-0.518;2022-11-15T17:03:20;4.20;;;1.10;;
46080;SDS011;31821;51.880;-0.518;2022-11-15T17:06:02;2.92;;;0.80;;
46080;SDS011;31821;51.880;-0.518;2022-11-15T17:09:19;4.85;;;1.40;;
46080;SDS011;31821;51.880;-0.518;2022-11-15T17:14:49;4.03;;;1.40;;
46080;SDS011;31821;51.880;-0.518;2022-11-15T17:17:18;6.55;;;1.48;;
46080;SDS011;31821;51.880;-0.518;2022-11-15T17:19:51;5.50;;;1.40;;
46080;SDS011;31821;51.880;-0.518;2022-11-15T17:25:02;3.60;;;1.10;;
46080;SDS011;31821;51.880;-0.518;2022-11-15T17:27:33;6.18;;;1.15;;
46080;SDS011;31821;51.880;-0.518;2022-11-15T17:30:19;4.95;;;1.00;;
46080;SDS011;31821;51.880;-0.518;2022-11-15T17:32:45;2.85;;;0.90;;
46080;SDS011;31821;51.880;-0.518;2022-11-15T17:35:18;3.60;;;1.10;;
46080;SDS011;31821;51.880;-0.518;2022-11-15T17:37:48;5.18;;;1.25;;
46080;SDS011;31821;51.880;-0.518;2022-11-15T17:40:19;4.88;;;1.20;;
46080;SDS011;31821;51.880;-0.518;2022-11-15T17:42:45;3.72;;;1.15;;
46080;SDS011;31821;51.880;-0.518;2022-11-15T17:45:17;5.05;;;1.20;;
46080;SDS011;31821;51.880;-0.518;2022-11-15T17:47:47;4.50;;;1.20;;
46080;SDS011;31821;51.880;-0.518;2022-11-15T17:50:36;5.17;;;1.13;;
46080;SDS011;31821;51.880;-0.518;2022-11-15T17:53:07;5.75;;;1.70;;
46080;SDS011;31821;51.880;-0.518;2022-11-15T17:55:47;5.47;;;1.20;;